createdAt,value
2022-08-29T00:01:02.316Z,96283.72
2022-08-29T00:03:33.446Z,96275.13
2022-08-29T00:06:01.502Z,96278.38
2022-08-29T00:08:29.585Z,96281.56
2022-08-29T00:10:57.649Z,96285.00
2022-08-29T00:13:27.558Z,96292.78
2022-08-29T00:15:55.761Z,96284.19
2022-08-29T00:18:23.845Z,96290.66
2022-08-29T00:20:52.162Z,96290.91
2022-08-29T00:23:20.264Z,96290.91
2022-08-29T00:25:48.297Z,96284.19
2022-08-29T00:28:16.654Z,96287.41
2022-08-29T00:30:46.229Z,96282.03
2022-08-29T00:33:14.304Z,96281.22
2022-08-29T00:35:43.569Z,96283.63
2022-08-29T00:38:12.681Z,96279.31
2022-08-29T00:40:42.228Z,96273.41
2022-08-29T00:43:13.463Z,96277.44
2022-08-29T00:45:48.341Z,96276.38
2022-08-29T00:48:16.753Z,96280.41
2022-08-29T00:50:46.114Z,96280.91
2022-08-29T00:53:17.107Z,96270.44
2022-08-29T00:55:50.543Z,96270.75
2022-08-29T00:58:25.770Z,96276.09
2022-08-29T01:00:55.689Z,96273.13
2022-08-29T01:03:23.841Z,96271.81
2022-08-29T01:05:51.935Z,96273.69
2022-08-29T01:08:20.618Z,96288.94
2022-08-29T01:11:08.096Z,96276.06
2022-08-29T01:13:38.801Z,96276.28
2022-08-29T01:16:08.633Z,96282.44
2022-08-29T01:18:37.370Z,96285.94
2022-08-29T01:21:09.268Z,96282.69
2022-08-29T01:23:42.187Z,96284.56
2022-08-29T01:26:12.437Z,96287.75
2022-08-29T01:28:42.019Z,96281.06
2022-08-29T01:31:11.909Z,96284.81
2022-08-29T01:33:42.615Z,96289.34
2022-08-29T01:36:11.869Z,96282.66
2022-08-29T01:38:39.897Z,96285.03
2022-08-29T01:41:08.057Z,96291.69
2022-08-29T01:43:41.546Z,96288.75
2022-08-29T01:46:12.077Z,96291.38
2022-08-29T01:48:41.447Z,96292.72
2022-08-29T01:51:09.990Z,96285.47
2022-08-29T01:53:40.246Z,96282.25
2022-08-29T01:56:13.553Z,96284.91
2022-08-29T01:58:44.772Z,96274.75
2022-08-29T02:01:12.943Z,96285.47
2022-08-29T02:03:41.950Z,96285.16
2022-08-29T02:06:11.371Z,96285.16
2022-08-29T02:08:40.579Z,96285.69
2022-08-29T02:11:10.288Z,96285.69
2022-08-29T02:13:41.115Z,96289.69
2022-08-29T02:16:14.925Z,96292.63
2022-08-29T02:18:43.286Z,96297.19
2022-08-29T02:21:16.990Z,96289.91
2022-08-29T02:23:46.993Z,96291.53
2022-08-29T02:26:16.021Z,96300.34
2022-08-29T02:28:50.828Z,96295.75
2022-08-29T02:31:21.376Z,96298.97
2022-08-29T02:33:51.568Z,96297.84
2022-08-29T02:36:20.426Z,96300.28
2022-08-29T02:38:49.879Z,96294.38
2022-08-29T02:41:18.393Z,96290.06
2022-08-29T02:43:49.440Z,96290.84
2022-08-29T02:46:21.312Z,96302.06
2022-08-29T02:49:00.026Z,96295.34
2022-08-29T02:51:31.136Z,96300.13
2022-08-29T02:53:59.264Z,96296.41
2022-08-29T02:56:27.827Z,96293.22
2022-08-29T02:58:56.105Z,96293.72
2022-08-29T03:01:26.120Z,96296.06
2022-08-29T03:03:54.257Z,96298.41
2022-08-29T03:06:23.404Z,96291.97
2022-08-29T03:08:54.335Z,96291.97
2022-08-29T03:11:23.386Z,96288.50
2022-08-29T03:13:52.008Z,96285.22
2022-08-29T03:16:29.120Z,96285.72
2022-08-29T03:18:57.626Z,96281.69
2022-08-29T03:21:27.051Z,96274.75
2022-08-29T03:23:56.449Z,96279.56
2022-08-29T03:26:25.417Z,96283.03
2022-08-29T03:28:53.707Z,96281.97
2022-08-29T03:31:22.180Z,96287.25
2022-08-29T03:33:53.122Z,96281.34
2022-08-29T03:36:22.057Z,96276.25
2022-08-29T03:38:50.294Z,96276.53
2022-08-29T03:41:23.009Z,96280.53
2022-08-29T03:43:51.468Z,96280.22
2022-08-29T03:46:21.168Z,96279.66
2022-08-29T03:48:50.917Z,96288.19
2022-08-29T03:51:21.104Z,96279.66
2022-08-29T03:53:51.601Z,96278.56
2022-08-29T03:56:20.677Z,96283.59
2022-08-29T03:58:53.356Z,96290.00
2022-08-29T04:01:24.552Z,96282.50
2022-08-29T04:03:54.577Z,96286.47
2022-08-29T04:06:25.615Z,96292.06
2022-08-29T04:08:54.293Z,96293.94
2022-08-29T04:11:24.003Z,96304.06
2022-08-29T04:13:53.176Z,96303.53
2022-08-29T04:16:22.319Z,96299.50
2022-08-29T04:18:52.815Z,96307.50
2022-08-29T04:21:22.419Z,96306.44
2022-08-29T04:23:50.961Z,96306.13
2022-08-29T04:26:36.388Z,96306.38
2022-08-29T04:29:06.920Z,96309.06
2022-08-29T04:31:35.655Z,96315.44
2022-08-29T04:34:03.774Z,96317.88
2022-08-29T04:36:36.727Z,96314.72
2022-08-29T04:39:04.919Z,96313.91
2022-08-29T04:41:33.657Z,96323.53
2022-08-29T04:44:02.370Z,96322.72
2022-08-29T04:46:31.619Z,96316.56
2022-08-29T04:49:04.218Z,96323.53
2022-08-29T04:51:45.698Z,96327.03
2022-08-29T04:54:24.789Z,96325.97
2022-08-29T04:56:57.263Z,96329.97
2022-08-29T04:59:27.365Z,96329.81
2022-08-29T05:01:56.729Z,96329.28
2022-08-29T05:04:25.257Z,96331.47
2022-08-29T05:06:54.829Z,96329.09
2022-08-29T05:09:24.168Z,96329.13
2022-08-29T05:11:53.701Z,96334.31
2022-08-29T05:14:21.955Z,96343.72
2022-08-29T05:16:50.004Z,96343.25
2022-08-29T05:19:19.593Z,96339.59
2022-08-29T05:21:49.469Z,96347.38
2022-08-29T05:24:19.006Z,96348.75
2022-08-29T05:26:47.782Z,96350.69
2022-08-29T05:29:16.910Z,96348.34
2022-08-29T05:31:46.274Z,96351.38
2022-08-29T05:34:34.618Z,96355.19
2022-08-29T05:37:04.291Z,96350.16
2022-08-29T05:39:36.593Z,96360.13
2022-08-29T05:42:07.411Z,96363.44
2022-08-29T05:44:36.622Z,96368.59
2022-08-29T05:47:05.072Z,96369.75
2022-08-29T05:49:33.142Z,96371.41
2022-08-29T05:52:01.544Z,96370.97
2022-08-29T05:54:30.308Z,96377.16
2022-08-29T05:57:00.407Z,96374.53
2022-08-29T05:59:28.728Z,96365.75
2022-08-29T06:01:56.909Z,96368.25
2022-08-29T06:04:24.945Z,96359.97
2022-08-29T06:06:53.328Z,96367.22
2022-08-29T06:09:22.107Z,96364.56
2022-08-29T06:11:53.318Z,96373.44
2022-08-29T06:14:23.194Z,96369.91
2022-08-29T06:16:51.361Z,96369.66
2022-08-29T06:19:19.474Z,96373.69
2022-08-29T06:21:47.884Z,96371.25
2022-08-29T06:24:15.976Z,96371.50
2022-08-29T06:26:44.606Z,96369.06
2022-08-29T06:29:14.791Z,96367.69
2022-08-29T06:31:44.684Z,96380.06
2022-08-29T06:34:12.837Z,96385.16
2022-08-29T06:36:40.936Z,96381.63
2022-08-29T06:39:10.655Z,96386.16
2022-08-29T06:41:39.646Z,96388.31
2022-08-29T06:44:08.239Z,96384.75
2022-08-29T06:46:37.499Z,96386.63
2022-08-29T06:49:08.153Z,96388.19
2022-08-29T06:51:36.921Z,96382.00
2022-08-29T06:54:07.329Z,96391.84
2022-08-29T06:56:37.066Z,96385.53
2022-08-29T06:59:05.655Z,96396.81
2022-08-29T07:01:34.145Z,96395.41
2022-08-29T07:04:04.137Z,96398.09
2022-08-29T07:06:35.392Z,96392.69
2022-08-29T07:09:03.737Z,96381.00
2022-08-29T07:11:35.619Z,96381.44
2022-08-29T07:14:09.638Z,96385.88
2022-08-29T07:16:38.814Z,96387.28
2022-08-29T07:19:10.200Z,96386.75
2022-08-29T07:21:40.592Z,96391.44
2022-08-29T07:24:10.380Z,96385.13
2022-08-29T07:26:42.792Z,96388.44
2022-08-29T07:29:14.456Z,96391.50
2022-08-29T07:31:43.329Z,96386.34
2022-08-29T07:34:13.370Z,96393.00
2022-08-29T07:36:44.155Z,96387.47
2022-08-29T07:39:14.343Z,96388.00
2022-08-29T07:41:46.782Z,96391.78
2022-08-29T07:44:16.503Z,96379.19
2022-08-29T07:46:45.746Z,96394.69
2022-08-29T07:49:14.883Z,96392.81
2022-08-29T07:51:49.264Z,96392.09
2022-08-29T07:54:21.918Z,96396.03
2022-08-29T07:56:52.520Z,96396.09
2022-08-29T07:59:23.594Z,96401.28
2022-08-29T08:01:53.950Z,96397.13
2022-08-29T08:04:24.482Z,96391.34
2022-08-29T08:06:54.622Z,96394.97
2022-08-29T08:09:22.945Z,96396.31
2022-08-29T08:11:51.336Z,96399.94
2022-08-29T08:14:19.394Z,96400.56
2022-08-29T08:16:47.949Z,96402.59
2022-08-29T08:19:16.403Z,96402.13
2022-08-29T08:21:50.163Z,96406.25
2022-08-29T08:24:20.209Z,96407.06
2022-08-29T08:26:49.882Z,96409.16
2022-08-29T08:29:19.055Z,96414.78
2022-08-29T08:31:49.868Z,96418.59
2022-08-29T08:34:20.362Z,96415.25
2022-08-29T08:36:50.700Z,96419.16
2022-08-29T08:39:21.400Z,96416.66
2022-08-29T08:41:52.957Z,96420.25
2022-08-29T08:44:40.026Z,96415.56
2022-08-29T08:47:08.343Z,96413.66
2022-08-29T08:49:39.609Z,96414.53
2022-08-29T08:52:11.653Z,96417.75
2022-08-29T08:54:45.393Z,96415.16
2022-08-29T08:57:13.472Z,96414.53
2022-08-29T08:59:43.537Z,96413.22
2022-08-29T09:02:14.728Z,96411.50
2022-08-29T09:05:03.307Z,96406.31
2022-08-29T09:07:43.103Z,96414.72
2022-08-29T09:10:26.703Z,96411.09
2022-08-29T09:13:01.031Z,96408.16
2022-08-29T09:15:33.085Z,96414.69
2022-08-29T09:18:04.722Z,96412.84
2022-08-29T09:20:34.562Z,96409.09
2022-08-29T09:23:06.017Z,96413.38
2022-08-29T09:25:36.551Z,96413.34
2022-08-29T09:28:06.867Z,96416.75
2022-08-29T09:30:37.206Z,96413.81
2022-08-29T09:33:10.019Z,96411.31
2022-08-29T09:35:43.695Z,96413.28
2022-08-29T09:38:25.956Z,96421.00
2022-08-29T09:40:57.050Z,96414.75
2022-08-29T09:43:28.028Z,96411.59
2022-08-29T09:46:09.194Z,96413.19
2022-08-29T09:48:39.656Z,96405.28
2022-08-29T09:51:15.988Z,96399.53
2022-08-29T09:53:44.466Z,96409.44
2022-08-29T09:56:18.604Z,96408.75
2022-08-29T09:58:47.482Z,96416.03
2022-08-29T10:01:23.116Z,96412.88
2022-08-29T10:04:03.533Z,96420.72
2022-08-29T10:06:33.118Z,96416.13
2022-08-29T10:09:03.827Z,96417.84
2022-08-29T10:11:36.335Z,96412.44
2022-08-29T10:14:06.854Z,96412.72
2022-08-29T10:16:45.275Z,96419.66
2022-08-29T10:19:14.518Z,96417.34
2022-08-29T10:21:48.145Z,96413.56
2022-08-29T10:24:25.190Z,96408.13
2022-08-29T10:26:58.077Z,96410.53
2022-08-29T10:29:32.157Z,96413.50
2022-08-29T10:32:05.031Z,96416.59
2022-08-29T10:34:42.462Z,96406.69
2022-08-29T10:37:16.576Z,96410.88
2022-08-29T10:39:47.928Z,96402.59
2022-08-29T10:42:19.395Z,96410.41
2022-08-29T10:44:54.325Z,96410.91
2022-08-29T10:47:32.373Z,96411.91
2022-08-29T10:50:16.910Z,96409.44
2022-08-29T10:52:54.065Z,96415.75
2022-08-29T10:55:32.498Z,96420.44
2022-08-29T10:58:04.334Z,96405.47
2022-08-29T11:00:36.797Z,96404.47
2022-08-29T11:03:10.574Z,96411.72
2022-08-29T11:05:40.901Z,96409.69
2022-08-29T11:08:15.960Z,96401.41
2022-08-29T11:10:45.608Z,96403.59
2022-08-29T11:13:18.615Z,96409.03
2022-08-29T11:15:49.773Z,96417.47
2022-08-29T11:18:22.660Z,96411.31
2022-08-29T11:20:53.407Z,96415.44
2022-08-29T11:23:27.073Z,96409.50
2022-08-29T11:25:55.338Z,96417.06
2022-08-29T11:28:28.618Z,96415.75
2022-08-29T11:30:59.452Z,96414.22
2022-08-29T11:33:33.129Z,96407.81
2022-08-29T11:36:15.936Z,96409.69
2022-08-29T11:38:52.874Z,96409.78
2022-08-29T11:41:28.517Z,96408.72
2022-08-29T11:44:05.376Z,96410.16
2022-08-29T11:46:43.143Z,96410.41
2022-08-29T11:49:39.945Z,96400.44
2022-08-29T11:52:25.732Z,96400.66
2022-08-29T11:55:26.499Z,96395.06
2022-08-29T11:58:05.773Z,96395.25
2022-08-29T12:00:58.658Z,96397.09
2022-08-29T12:03:55.125Z,96395.16
2022-08-29T12:06:37.966Z,96385.50
2022-08-29T12:09:23.394Z,96393.59
2022-08-29T12:12:14.664Z,96393.31
2022-08-29T12:14:43.580Z,96388.50
2022-08-29T12:18:00.957Z,96384.09
2022-08-29T12:20:40.730Z,96386.38
2022-08-29T12:23:19.111Z,96384.00
2022-08-29T12:26:03.827Z,96382.97
2022-08-29T12:28:39.654Z,96383.31
2022-08-29T12:31:13.404Z,96372.16
2022-08-29T12:34:08.252Z,96377.47
2022-08-29T12:36:52.006Z,96373.03
2022-08-29T12:39:26.639Z,96373.53
2022-08-29T12:42:23.145Z,96374.28
2022-08-29T12:45:00.509Z,96358.28
2022-08-29T12:47:33.686Z,96362.00
2022-08-29T12:50:06.439Z,96355.59
2022-08-29T12:52:36.944Z,96357.19
2022-08-29T12:55:20.341Z,96362.09
2022-08-29T12:57:49.660Z,96357.63
2022-08-29T13:00:21.153Z,96354.31
2022-08-29T13:03:00.809Z,96359.72
2022-08-29T13:05:31.325Z,96357.03
2022-08-29T13:08:00.799Z,96354.00
2022-08-29T13:10:33.619Z,96344.06
2022-08-29T13:13:06.825Z,96348.09
2022-08-29T13:15:35.273Z,96348.03
2022-08-29T13:18:03.355Z,96346.06
2022-08-29T13:21:12.183Z,96348.63
2022-08-29T13:23:47.777Z,96348.09
2022-08-29T13:26:21.927Z,96342.78
2022-08-29T13:28:52.069Z,96345.38
2022-08-29T13:31:36.253Z,96330.88
2022-08-29T13:34:19.518Z,96336.44
2022-08-29T13:37:03.426Z,96332.59
2022-08-29T13:39:43.550Z,96335.16
2022-08-29T13:42:25.697Z,96331.50
2022-08-29T13:45:02.783Z,96331.22
2022-08-29T13:47:32.222Z,96326.03
2022-08-29T13:50:05.620Z,96330.19
2022-08-29T13:52:36.687Z,96330.34
2022-08-29T13:55:05.585Z,96325.22
2022-08-29T13:57:36.774Z,96326.81
2022-08-29T14:00:08.310Z,96319.44
2022-08-29T14:02:40.254Z,96320.75
2022-08-29T14:05:16.014Z,96325.56
2022-08-29T14:07:49.330Z,96326.97
2022-08-29T14:10:18.239Z,96320.22
2022-08-29T14:12:46.975Z,96316.59
2022-08-29T14:15:17.961Z,96315.19
2022-08-29T14:17:47.559Z,96310.75
2022-08-29T14:20:17.775Z,96321.56
2022-08-29T14:22:49.038Z,96316.25
2022-08-29T14:25:19.611Z,96308.34
2022-08-29T14:27:49.642Z,96303.88
2022-08-29T14:30:19.329Z,96301.94
2022-08-29T14:32:47.717Z,96302.84
2022-08-29T14:35:26.412Z,96305.31
2022-08-29T14:38:02.757Z,96305.41
2022-08-29T14:40:32.254Z,96294.84
2022-08-29T14:43:01.215Z,96304.81
2022-08-29T14:45:30.914Z,96303.13
2022-08-29T14:48:03.323Z,96293.56
2022-08-29T14:50:31.875Z,96298.47
2022-08-29T14:52:59.966Z,96305.09
2022-08-29T14:55:29.818Z,96301.56
2022-08-29T14:57:58.197Z,96305.09
2022-08-29T15:00:30.519Z,96311.41
2022-08-29T15:03:00.003Z,96305.50
2022-08-29T15:05:28.279Z,96295.56
2022-08-29T15:07:56.458Z,96298.09
2022-08-29T15:10:25.310Z,96299.00
2022-08-29T15:12:55.082Z,96286.91
2022-08-29T15:15:29.254Z,96293.38
2022-08-29T15:17:57.830Z,96286.25
2022-08-29T15:20:46.131Z,96286.44
2022-08-29T15:23:14.623Z,96285.31
2022-08-29T15:25:51.999Z,96283.28
2022-08-29T15:28:25.349Z,96282.75
2022-08-29T15:30:54.254Z,96281.69
2022-08-29T15:33:23.278Z,96290.81
2022-08-29T15:35:51.552Z,96284.81
2022-08-29T15:38:19.880Z,96279.53
2022-08-29T15:40:49.670Z,96287.44
2022-08-29T15:43:23.607Z,96287.44
2022-08-29T15:45:59.000Z,96279.56
2022-08-29T15:48:27.885Z,96284.41
2022-08-29T15:50:56.019Z,96277.19
2022-08-29T15:53:24.880Z,96271.44
2022-08-29T15:55:56.144Z,96273.84
2022-08-29T15:58:25.367Z,96271.78
2022-08-29T16:00:57.266Z,96267.16
2022-08-29T16:03:26.377Z,96264.94
2022-08-29T16:05:54.912Z,96266.22
2022-08-29T16:08:29.604Z,96266.41
2022-08-29T16:10:59.406Z,96268.16
2022-08-29T16:13:27.730Z,96263.88
2022-08-29T16:15:58.424Z,96266.13
2022-08-29T16:18:29.999Z,96266.13
2022-08-29T16:21:00.553Z,96264.19
2022-08-29T16:23:31.050Z,96266.28
2022-08-29T16:25:59.133Z,96264.53
2022-08-29T16:28:28.857Z,96267.41
2022-08-29T16:30:58.374Z,96265.63
2022-08-29T16:33:29.745Z,96267.22
2022-08-29T16:36:04.097Z,96263.53
2022-08-29T16:38:32.922Z,96262.41
2022-08-29T16:41:07.809Z,96257.28
2022-08-29T16:43:38.622Z,96254.09
2022-08-29T16:46:11.849Z,96250.56
2022-08-29T16:48:44.190Z,96253.63
2022-08-29T16:51:13.571Z,96254.06
2022-08-29T16:53:55.683Z,96248.94
2022-08-29T16:56:29.322Z,96249.41
2022-08-29T16:59:01.816Z,96250.03
2022-08-29T17:01:32.859Z,96255.31
2022-08-29T17:04:01.850Z,96254.00
2022-08-29T17:06:32.190Z,96252.56
2022-08-29T17:09:04.264Z,96257.47
2022-08-29T17:11:34.269Z,96254.03
2022-08-29T17:14:02.493Z,96252.28
2022-08-29T17:16:32.376Z,96265.66
2022-08-29T17:19:01.169Z,96256.53
2022-08-29T17:21:29.558Z,96252.19
2022-08-29T17:23:58.465Z,96254.69
2022-08-29T17:26:26.664Z,96253.66
2022-08-29T17:28:55.048Z,96250.75
2022-08-29T17:31:23.656Z,96248.91
2022-08-29T17:33:53.210Z,96244.34
2022-08-29T17:36:21.336Z,96250.94
2022-08-29T17:38:50.580Z,96256.41
2022-08-29T17:41:22.150Z,96254.72
2022-08-29T17:43:51.699Z,96253.50
2022-08-29T17:46:21.899Z,96251.31
2022-08-29T17:48:55.395Z,96250.31
2022-08-29T17:51:25.627Z,96252.72
2022-08-29T17:53:53.818Z,96247.34
2022-08-29T17:56:31.371Z,96257.63
2022-08-29T17:59:02.640Z,96253.84
2022-08-29T18:01:35.966Z,96252.41
2022-08-29T18:04:05.964Z,96251.00
2022-08-29T18:06:34.911Z,96251.47
2022-08-29T18:09:03.398Z,96257.81
2022-08-29T18:11:38.679Z,96255.59
2022-08-29T18:14:07.209Z,96259.19
2022-08-29T18:16:35.789Z,96269.53
2022-08-29T18:19:06.287Z,96262.41
2022-08-29T18:21:34.400Z,96266.28
2022-08-29T18:24:07.102Z,96264.50
2022-08-29T18:26:43.521Z,96278.63
2022-08-29T18:29:14.103Z,96279.59
2022-08-29T18:31:45.931Z,96279.44
2022-08-29T18:34:15.891Z,96287.09
2022-08-29T18:36:44.807Z,96289.38
2022-08-29T18:39:13.090Z,96285.19
2022-08-29T18:41:41.500Z,96288.75
2022-08-29T18:44:13.261Z,96292.28
2022-08-29T18:46:47.940Z,96289.16
2022-08-29T18:53:40.746Z,96295.31
2022-08-29T18:56:09.423Z,96295.06
2022-08-29T18:58:38.911Z,96290.31
2022-08-29T19:01:13.755Z,96294.13
2022-08-29T19:03:42.450Z,96289.59
2022-08-29T19:06:11.314Z,96293.47
2022-08-29T19:08:43.176Z,96296.19
2022-08-29T19:11:12.874Z,96301.66
2022-08-29T19:13:41.972Z,96309.75
2022-08-29T19:16:14.818Z,96302.53
2022-08-29T19:18:44.216Z,96314.16
2022-08-29T19:21:16.201Z,96311.53
2022-08-29T19:23:51.350Z,96304.81
2022-08-29T19:26:23.212Z,96307.84
2022-08-29T19:28:54.226Z,96308.41
2022-08-29T19:31:27.780Z,96307.88
2022-08-29T19:33:59.270Z,96314.88
2022-08-29T19:36:28.297Z,96314.66
2022-08-29T19:38:59.344Z,96313.34
2022-08-29T19:41:32.020Z,96316.59
2022-08-29T19:44:00.845Z,96313.09
2022-08-29T19:46:32.462Z,96308.81
2022-08-29T19:51:36.339Z,96309.88
2022-08-29T19:54:08.706Z,96314.50
2022-08-29T19:56:46.854Z,96320.44
2022-08-29T19:59:16.187Z,96314.81
2022-08-29T20:01:45.860Z,96320.25
2022-08-29T20:04:14.657Z,96315.94
2022-08-29T20:06:43.984Z,96321.88
2022-08-29T20:09:15.806Z,96327.84
2022-08-29T20:11:45.546Z,96328.94
2022-08-29T20:14:14.434Z,96327.31
2022-08-29T20:16:43.116Z,96325.75
2022-08-29T20:19:12.259Z,96328.75
2022-08-29T20:21:41.010Z,96324.47
2022-08-29T20:24:10.604Z,96323.44
2022-08-29T20:26:46.836Z,96333.94
2022-08-29T20:29:17.245Z,96328.31
2022-08-29T20:31:46.797Z,96333.44
2022-08-29T20:34:15.301Z,96328.38
2022-08-29T20:37:01.256Z,96329.72
2022-08-29T20:39:29.868Z,96331.38
2022-08-29T20:42:00.370Z,96330.03
2022-08-29T20:44:33.738Z,96338.94
2022-08-29T20:47:03.001Z,96342.97
2022-08-29T20:49:31.471Z,96339.50
2022-08-29T20:52:00.078Z,96335.47
2022-08-29T20:54:28.391Z,96346.25
2022-08-29T20:56:56.652Z,96345.72
2022-08-29T20:59:26.981Z,96347.84
2022-08-29T21:01:55.962Z,96353.78
2022-08-29T21:04:41.737Z,96352.97
2022-08-29T21:07:11.198Z,96347.59
2022-08-29T21:09:41.834Z,96352.16
2022-08-29T21:12:10.412Z,96344.91
2022-08-29T21:14:40.677Z,96347.59
2022-08-29T21:17:13.566Z,96357.81
2022-08-29T21:19:45.000Z,96346.56
2022-08-29T21:22:13.883Z,96350.03
2022-08-29T21:24:44.201Z,96347.63
2022-08-29T21:27:13.010Z,96344.97
2022-08-29T21:29:46.959Z,96353.00
2022-08-29T21:32:16.333Z,96354.91
2022-08-29T21:34:44.839Z,96354.34
2022-08-29T21:37:14.645Z,96353.28
2022-08-29T21:39:45.394Z,96346.84
2022-08-29T21:42:14.922Z,96351.41
2022-08-29T21:44:45.149Z,96347.66
2022-08-29T21:47:17.265Z,96351.13
2022-08-29T21:49:48.580Z,96347.66
2022-08-29T21:52:17.703Z,96349.25
2022-08-29T21:54:45.963Z,96353.00
2022-08-29T21:57:18.273Z,96343.88
2022-08-29T21:59:50.784Z,96349.50
2022-08-29T22:02:19.402Z,96347.34
2022-08-29T22:04:48.033Z,96343.34
2022-08-29T22:07:16.811Z,96338.50
2022-08-29T22:09:46.223Z,96343.31
2022-08-29T22:12:17.016Z,96343.59
2022-08-29T22:15:02.396Z,96353.53
2022-08-29T22:17:34.993Z,96355.38
2022-08-29T22:20:05.000Z,96354.31
2022-08-29T22:22:33.324Z,96350.53
2022-08-29T22:25:01.834Z,96351.09
2022-08-29T22:27:30.016Z,96344.09
2022-08-29T22:29:59.634Z,96344.34
2022-08-29T22:32:30.501Z,96338.47
2022-08-29T22:35:08.457Z,96344.34
2022-08-29T22:37:37.813Z,96340.31
2022-08-29T22:40:14.362Z,96336.25
2022-08-29T22:42:43.406Z,96338.69
2022-08-29T22:45:14.244Z,96345.41
2022-08-29T22:47:44.557Z,96343.75
2022-08-29T22:50:16.810Z,96341.31
2022-08-29T22:52:45.651Z,96342.66
2022-08-29T22:57:49.664Z,96343.97
2022-08-29T23:00:19.860Z,96347.72
2022-08-29T23:02:48.336Z,96353.09
2022-08-29T23:05:18.647Z,96348.81
2022-08-29T23:07:46.899Z,96347.72
2022-08-29T23:10:15.136Z,96345.56
2022-08-29T23:12:43.482Z,96349.56
2022-08-29T23:15:13.705Z,96344.75
2022-08-29T23:17:42.463Z,96356.81
2022-08-29T23:20:13.525Z,96349.00
2022-08-29T23:22:43.819Z,96349.81
2022-08-29T23:25:12.507Z,96345.56
2022-08-29T23:27:41.698Z,96345.31
2022-08-29T23:30:12.141Z,96338.84
2022-08-29T23:32:40.664Z,96342.34
2022-08-29T23:35:10.055Z,96339.09
2022-08-29T23:37:39.668Z,96344.47
2022-08-29T23:40:14.355Z,96347.69
2022-08-29T23:42:43.613Z,96337.50
2022-08-29T23:45:14.436Z,96343.41
2022-08-29T23:47:43.376Z,96343.09
2022-08-29T23:50:14.386Z,96340.69
2022-08-29T23:52:43.799Z,96340.69
2022-08-29T23:55:14.551Z,96343.09
2022-08-29T23:57:42.886Z,96337.19
